Time;durP1;ratioP1;P1;durP2;ratioP2;P2;SDS_P1;SDS_P2;PMS_P1;PMS_P2;Temp;Humidity;BMP_temperature;BMP_pressure;BME280_temperature;BME280_humidity;BME280_pressure;Samples;Min_cycle;Max_cycle;Signal;HPM_P1;HPM_P2
2022/10/26 00:00:08;;;;;;;2.15;1.00;;;21.50;52.30;;;;;;5051051;28;20455;-50
2022/10/26 00:02:37;;;;;;;2.05;0.90;;;21.50;52.40;;;;;;5052172;28;20082;-52
2022/10/26 00:05:04;;;;;;;2.08;1.00;;;21.40;52.30;;;;;;5052839;28;20041;-51
2022/10/26 00:07:29;;;;;;;1.80;1.10;;;21.50;52.40;;;;;;5051597;28;20420;-51
2022/10/26 00:09:55;;;;;;;2.20;0.93;;;21.50;52.40;;;;;;5047753;28;20059;-49
2022/10/26 00:12:21;;;;;;;3.25;1.10;;;21.40;52.30;;;;;;5051937;28;20061;-53
2022/10/26 00:14:47;;;;;;;3.80;1.10;;;21.40;52.40;;;;;;5052117;28;20056;-48
2022/10/26 00:17:13;;;;;;;1.75;1.00;;;21.40;52.40;;;;;;5052748;28;20029;-47
2022/10/26 00:19:38;;;;;;;2.15;0.93;;;21.40;52.40;;;;;;5049061;28;20045;-52
2022/10/26 00:22:04;;;;;;;4.13;1.23;;;21.40;52.40;;;;;;5051998;28;20068;-52
2022/10/26 00:24:30;;;;;;;2.50;1.20;;;21.40;52.40;;;;;;5052078;28;20067;-54
2022/10/26 00:26:56;;;;;;;2.63;1.20;;;21.40;52.40;;;;;;5051153;28;20475;-47
2022/10/26 00:29:21;;;;;;;1.80;1.08;;;21.40;52.40;;;;;;5051738;28;20083;-50
2022/10/26 00:31:47;;;;;;;2.50;1.10;;;21.40;52.40;;;;;;5052134;28;20471;-50
2022/10/26 00:34:13;;;;;;;2.50;1.13;;;21.40;52.40;;;;;;5051091;28;20029;-50
2022/10/26 00:36:39;;;;;;;2.33;1.00;;;21.40;52.50;;;;;;5050557;28;20033;-50
2022/10/26 00:39:05;;;;;;;1.90;0.93;;;21.40;52.50;;;;;;5051452;28;20029;-49
2022/10/26 00:41:33;;;;;;;1.88;1.13;;;21.40;52.50;;;;;;5052418;28;20036;-48
2022/10/26 00:43:59;;;;;;;1.10;0.80;;;21.40;52.50;;;;;;5050934;28;20040;-46
2022/10/26 00:46:37;;;;;;;2.28;1.23;;;21.30;52.70;;;;;;5051429;28;20047;-45
2022/10/26 00:49:15;;;;;;;2.30;1.00;;;21.30;52.50;;;;;;5051481;28;20122;-49
2022/10/26 00:51:51;;;;;;;1.73;1.08;;;21.30;52.50;;;;;;5051147;28;20167;-48
2022/10/26 00:54:19;;;;;;;1.40;0.90;;;21.30;52.50;;;;;;5049542;28;20372;-48
2022/10/26 00:56:50;;;;;;;3.22;1.10;;;21.30;52.50;;;;;;5052123;28;20036;-50
2022/10/26 00:59:17;;;;;;;1.50;1.20;;;21.30;52.50;;;;;;5048019;28;20017;-50
2022/10/26 01:01:45;;;;;;;2.47;0.98;;;21.30;52.50;;;;;;5052138;28;20028;-46
2022/10/26 01:04:13;;;;;;;2.70;1.13;;;21.30;52.60;;;;;;5050256;28;20487;-47
2022/10/26 01:06:40;;;;;;;2.88;1.10;;;21.30;52.50;;;;;;5048577;28;20028;-47
2022/10/26 01:09:06;;;;;;;2.13;0.95;;;21.30;52.50;;;;;;5049075;28;20471;-48
2022/10/26 01:11:32;;;;;;;2.17;1.05;;;21.30;52.60;;;;;;5050647;28;20021;-48
2022/10/26 01:14:00;;;;;;;1.88;1.10;;;21.30;52.50;;;;;;5050660;28;20094;-49
2022/10/26 01:16:49;;;;;;;1.35;0.80;;;21.30;52.50;;;;;;5050737;28;20379;-48
2022/10/26 01:19:33;;;;;;;1.48;1.00;;;21.30;52.60;;;;;;5045926;28;20491;-49
2022/10/26 01:22:07;;;;;;;1.50;0.82;;;21.30;52.50;;;;;;5050890;28;20445;-51
2022/10/26 01:24:47;;;;;;;1.15;0.90;;;21.30;52.60;;;;;;5050821;28;20060;-50
2022/10/26 01:27:19;;;;;;;4.45;1.08;;;21.30;52.60;;;;;;5049729;28;20029;-51
2022/10/26 01:29:48;;;;;;;2.28;1.17;;;21.30;52.70;;;;;;5048844;28;20051;-47
2022/10/26 01:32:23;;;;;;;3.58;1.38;;;21.20;52.60;;;;;;5051106;28;20033;-48
2022/10/26 01:35:10;;;;;;;2.83;1.10;;;21.20;52.70;;;;;;5049131;28;20122;-48
2022/10/26 01:37:44;;;;;;;2.47;1.02;;;21.20;52.70;;;;;;5050693;28;20033;-48
2022/10/26 01:40:23;;;;;;;2.30;1.10;;;21.20;52.70;;;;;;5051720;28;20369;-51
2022/10/26 01:42:52;;;;;;;1.90;1.02;;;21.20;52.60;;;;;;5051126;28;20086;-51
2022/10/26 01:45:18;;;;;;;1.73;1.00;;;21.20;52.70;;;;;;5050858;28;20060;-51
2022/10/26 01:47:47;;;;;;;1.35;0.90;;;21.20;52.70;;;;;;5050653;28;20029;-50
2022/10/26 01:50:13;;;;;;;1.75;0.80;;;21.20;52.70;;;;;;5047014;28;20095;-50
2022/10/26 01:52:39;;;;;;;2.22;1.30;;;21.20;52.70;;;;;;5051010;28;20079;-48
2022/10/26 01:55:42;;;;;;;1.45;1.05;;;21.20;52.70;;;;;;5050722;28;20029;-51
2022/10/26 01:58:22;;;;;;;3.35;1.45;;;21.20;52.70;;;;;;5048618;28;20171;-49
2022/10/26 02:01:06;;;;;;;1.98;1.17;;;21.10;52.70;;;;;;5047592;28;20040;-48
2022/10/26 02:03:44;;;;;;;2.00;1.10;;;21.20;52.70;;;;;;5052149;28;20499;-51
2022/10/26 02:06:32;;;;;;;1.65;0.90;;;21.10;52.70;;;;;;5048003;28;20075;-52
2022/10/26 02:09:23;;;;;;;2.08;0.80;;;21.20;52.80;;;;;;5046672;28;20033;-47
2022/10/26 02:11:51;;;;;;;3.67;1.00;;;21.20;52.80;;;;;;5020991;28;20102;-49
2022/10/26 02:14:23;;;;;;;2.05;1.00;;;21.10;52.80;;;;;;5050213;28;20060;-49
2022/10/26 02:16:55;;;;;;;1.80;1.00;;;21.10;52.80;;;;;;5049783;28;20040;-51
2022/10/26 02:19:23;;;;;;;2.00;1.13;;;21.10;52.80;;;;;;5047092;28;20123;-48
2022/10/26 02:21:55;;;;;;;2.47;1.45;;;21.10;52.80;;;;;;5050381;28;20033;-50
2022/10/26 02:24:23;;;;;;;3.03;1.17;;;21.10;52.80;;;;;;5046797;28;20041;-48
2022/10/26 02:26:51;;;;;;;4.05;1.17;;;21.10;52.80;;;;;;5049600;28;20108;-51
2022/10/26 02:29:19;;;;;;;2.50;1.10;;;21.10;52.80;;;;;;5048059;28;20682;-50
2022/10/26 02:31:48;;;;;;;2.72;1.17;;;21.10;52.80;;;;;;5049298;28;20104;-51
2022/10/26 02:34:21;;;;;;;2.25;1.20;;;21.10;52.80;;;;;;5049118;28;20040;-53
2022/10/26 02:36:50;;;;;;;2.30;1.20;;;21.10;52.80;;;;;;5049696;28;20025;-49
2022/10/26 02:39:18;;;;;;;2.60;1.00;;;21.10;52.80;;;;;;5049238;28;20502;-48
2022/10/26 02:41:47;;;;;;;3.10;1.20;;;21.10;52.80;;;;;;5049495;28;20025;-47
2022/10/26 02:44:16;;;;;;;2.63;1.33;;;21.10;52.80;;;;;;5049222;28;20372;-49
2022/10/26 02:46:43;;;;;;;1.67;0.95;;;21.00;52.80;;;;;;5050408;28;20031;-47
2022/10/26 02:49:09;;;;;;;1.70;0.80;;;21.10;52.80;;;;;;5050147;28;20029;-50
2022/10/26 02:51:42;;;;;;;2.47;1.02;;;21.10;52.80;;;;;;5045800;28;20094;-48
2022/10/26 02:54:18;;;;;;;2.42;1.02;;;21.10;52.80;;;;;;5047680;28;20090;-50
2022/10/26 02:57:25;;;;;;;3.20;1.13;;;21.10;52.90;;;;;;5049056;28;20031;-51
2022/10/26 02:59:52;;;;;;;2.30;0.90;;;21.10;52.80;;;;;;5047856;28;20040;-50
2022/10/26 03:02:21;;;;;;;2.10;1.10;;;21.10;52.90;;;;;;5049830;28;20021;-53
2022/10/26 03:04:49;;;;;;;1.80;1.08;;;21.00;52.90;;;;;;5048727;28;20483;-53
2022/10/26 03:07:22;;;;;;;3.55;1.20;;;21.00;52.90;;;;;;5048645;28;20086;-49
2022/10/26 03:09:48;;;;;;;2.10;1.30;;;21.00;52.90;;;;;;5045579;28;20115;-47
2022/10/26 03:12:14;;;;;;;1.70;1.17;;;21.00;53.00;;;;;;5048521;28;20884;-50
2022/10/26 03:14:40;;;;;;;2.53;1.25;;;21.00;52.90;;;;;;5049378;28;20057;-51
2022/10/26 03:17:06;;;;;;;3.40;1.30;;;21.00;53.00;;;;;;5049483;28;20116;-50
2022/10/26 03:19:32;;;;;;;3.22;1.35;;;21.00;53.10;;;;;;5053388;28;20036;-48
2022/10/26 03:21:58;;;;;;;2.30;1.20;;;21.00;53.00;;;;;;5052119;28;20029;-50
2022/10/26 03:24:24;;;;;;;2.40;1.30;;;21.00;53.10;;;;;;5050758;28;20376;-48
2022/10/26 03:26:49;;;;;;;2.85;1.17;;;21.00;53.00;;;;;;5051639;28;20075;-50
2022/10/26 03:29:15;;;;;;;2.78;1.30;;;21.00;53.10;;;;;;5052675;28;20455;-48
2022/10/26 03:31:41;;;;;;;1.90;0.90;;;21.00;53.10;;;;;;5052726;28;20032;-47
2022/10/26 03:34:07;;;;;;;3.85;1.42;;;21.00;53.10;;;;;;5050798;28;20107;-50
2022/10/26 03:36:33;;;;;;;2.78;1.20;;;21.00;53.10;;;;;;5052990;28;20029;-50
2022/10/26 03:38:58;;;;;;;2.72;1.20;;;21.00;53.10;;;;;;5053108;28;20124;-49
2022/10/26 03:41:25;;;;;;;2.25;1.00;;;21.00;53.10;;;;;;5052738;28;20025;-50
2022/10/26 03:43:50;;;;;;;1.75;1.00;;;21.00;53.10;;;;;;5052109;28;20025;-49
2022/10/26 03:46:16;;;;;;;3.28;1.30;;;21.00;53.10;;;;;;5052344;28;20457;-49
2022/10/26 03:48:42;;;;;;;2.45;1.20;;;21.00;53.10;;;;;;5052219;28;20078;-50
2022/10/26 03:51:08;;;;;;;2.20;1.33;;;21.00;53.10;;;;;;5051443;28;20029;-49
2022/10/26 03:53:33;;;;;;;2.03;1.20;;;21.00;53.10;;;;;;5051232;28;20449;-49
2022/10/26 03:55:59;;;;;;;1.55;1.00;;;21.00;53.10;;;;;;5052737;28;20100;-51
2022/10/26 03:58:25;;;;;;;3.33;1.35;;;21.00;53.10;;;;;;5051494;28;20433;-50
2022/10/26 04:00:51;;;;;;;3.05;1.13;;;20.90;53.10;;;;;;5051101;28;20456;-48
2022/10/26 04:03:17;;;;;;;3.30;1.42;;;21.00;53.20;;;;;;5051300;28;20048;-47
2022/10/26 04:05:42;;;;;;;3.30;1.25;;;20.90;53.10;;;;;;5052456;28;20040;-50
2022/10/26 04:08:08;;;;;;;3.10;1.10;;;21.00;53.20;;;;;;5052296;28;20070;-50
2022/10/26 04:10:34;;;;;;;3.63;1.30;;;21.00;53.20;;;;;;5049979;28;20037;-48
2022/10/26 04:13:00;;;;;;;4.15;1.23;;;20.90;53.20;;;;;;5051154;28;20033;-53
2022/10/26 04:15:27;;;;;;;2.55;1.20;;;20.90;53.20;;;;;;5052576;28;20048;-48
2022/10/26 04:18:01;;;;;;;1.42;0.95;;;20.90;53.20;;;;;;5052627;28;20028;-48
2022/10/26 04:20:28;;;;;;;3.00;1.23;;;20.90;53.20;;;;;;5049108;28;20154;-47
2022/10/26 04:22:59;;;;;;;2.13;1.42;;;20.90;53.20;;;;;;5052128;28;20434;-47
2022/10/26 04:25:25;;;;;;;1.83;1.20;;;20.90;53.20;;;;;;5051653;28;20055;-52
2022/10/26 04:27:51;;;;;;;2.08;1.20;;;20.90;53.20;;;;;;5049473;28;20448;-47
2022/10/26 04:30:17;;;;;;;1.67;1.02;;;20.90;53.20;;;;;;5051251;28;20021;-48
2022/10/26 04:32:43;;;;;;;2.05;1.20;;;20.90;53.20;;;;;;5051820;28;20108;-51
2022/10/26 04:35:09;;;;;;;2.25;1.30;;;20.90;53.20;;;;;;5050767;28;20172;-52
2022/10/26 04:37:34;;;;;;;3.22;1.40;;;20.90;53.30;;;;;;5052135;28;20028;-48
2022/10/26 04:40:00;;;;;;;2.40;1.38;;;20.90;53.20;;;;;;5050578;28;20037;-49
2022/10/26 04:42:26;;;;;;;3.22;1.33;;;20.90;53.30;;;;;;5051792;28;20032;-48
2022/10/26 04:44:52;;;;;;;3.10;1.25;;;20.90;53.30;;;;;;5051180;28;20056;-47
2022/10/26 04:47:18;;;;;;;2.58;1.33;;;20.90;53.30;;;;;;5051432;28;20481;-50
2022/10/26 04:49:43;;;;;;;2.55;1.10;;;20.90;53.30;;;;;;5049132;28;20025;-52
2022/10/26 04:52:09;;;;;;;2.80;1.33;;;20.90;53.30;;;;;;5051623;28;20052;-48
2022/10/26 04:54:35;;;;;;;3.42;1.38;;;20.90;53.30;;;;;;5051704;28;20028;-53
2022/10/26 04:57:01;;;;;;;2.33;1.10;;;20.90;53.30;;;;;;5051350;28;20028;-49
2022/10/26 04:59:26;;;;;;;1.23;0.73;;;20.90;53.30;;;;;;5047715;28;20027;-53
2022/10/26 05:01:52;;;;;;;2.42;1.25;;;20.90;53.30;;;;;;5051195;28;20443;-49
2022/10/26 05:04:18;;;;;;;1.88;1.00;;;20.90;53.30;;;;;;5051825;28;20356;-51
2022/10/26 05:06:44;;;;;;;1.95;1.25;;;20.90;53.30;;;;;;5051324;28;20099;-50
2022/10/26 05:09:10;;;;;;;2.75;1.17;;;20.80;53.20;;;;;;5050716;28;20024;-48
2022/10/26 05:11:35;;;;;;;1.90;1.10;;;20.80;53.20;;;;;;5050342;28;20479;-49
2022/10/26 05:14:01;;;;;;;2.22;1.10;;;20.80;53.20;;;;;;5051449;28;20436;-53
2022/10/26 05:16:27;;;;;;;2.28;1.25;;;20.80;53.20;;;;;;5051413;28;20044;-48
2022/10/26 05:18:53;;;;;;;2.47;1.45;;;20.80;53.20;;;;;;5050652;28;20389;-50
2022/10/26 05:21:19;;;;;;;1.98;1.00;;;20.90;53.30;;;;;;5050141;28;20068;-51
2022/10/26 05:23:51;;;;;;;2.25;1.13;;;20.80;53.20;;;;;;5050428;28;20029;-53
2022/10/26 05:26:17;;;;;;;1.90;1.00;;;20.80;53.30;;;;;;5048405;28;20487;-50
2022/10/26 05:28:43;;;;;;;2.55;1.17;;;20.90;53.30;;;;;;5051224;28;20107;-47
2022/10/26 05:31:09;;;;;;;3.20;1.20;;;20.80;53.30;;;;;;5049277;28;20112;-50
2022/10/26 05:33:34;;;;;;;3.30;1.30;;;20.80;53.30;;;;;;5048692;28;20356;-47
2022/10/26 05:36:00;;;;;;;2.85;1.30;;;20.80;53.30;;;;;;5049850;28;20114;-47
2022/10/26 05:38:26;;;;;;;3.35;1.30;;;20.80;53.30;;;;;;5049601;28;20025;-50
2022/10/26 05:40:53;;;;;;;1.30;0.90;;;20.80;53.40;;;;;;5048543;28;20033;-48
2022/10/26 05:43:21;;;;;;;2.45;1.33;;;20.80;53.40;;;;;;5050360;28;20029;-51
2022/10/26 05:45:48;;;;;;;2.72;1.23;;;20.80;53.40;;;;;;5048663;28;20456;-52
2022/10/26 05:48:14;;;;;;;2.88;0.80;;;20.80;53.40;;;;;;5050545;28;20508;-46
2022/10/26 05:50:40;;;;;;;2.88;1.65;;;20.80;53.40;;;;;;5050151;28;20152;-52
2022/10/26 05:53:06;;;;;;;1.83;0.95;;;20.80;53.50;;;;;;5050008;28;20025;-50
2022/10/26 05:55:32;;;;;;;3.17;1.65;;;20.80;53.50;;;;;;5050636;28;20383;-51
2022/10/26 05:57:58;;;;;;;2.95;1.23;;;20.80;53.50;;;;;;5049161;28;20471;-49
2022/10/26 06:00:26;;;;;;;2.83;1.48;;;20.80;53.60;;;;;;5048908;28;20048;-52
2022/10/26 06:03:16;;;;;;;2.28;1.38;;;20.80;53.60;;;;;;5050208;28;20025;-49
2022/10/26 06:05:56;;;;;;;2.67;1.30;;;20.80;53.70;;;;;;5049682;28;20033;-52
2022/10/26 06:08:25;;;;;;;2.80;1.40;;;20.80;53.70;;;;;;5048328;28;20040;-52
2022/10/26 06:10:52;;;;;;;2.63;1.23;;;20.80;53.70;;;;;;5046525;28;20033;-51
2022/10/26 06:13:18;;;;;;;5.55;1.80;;;20.80;53.80;;;;;;5049731;28;20444;-51
2022/10/26 06:15:59;;;;;;;3.00;1.50;;;20.80;53.80;;;;;;5048645;28;20056;-50
2022/10/26 06:18:46;;;;;;;4.32;1.73;;;20.80;53.80;;;;;;5050096;28;20372;-51
2022/10/26 06:21:38;;;;;;;4.35;1.40;;;20.80;53.80;;;;;;5049233;28;20043;-50
2022/10/26 06:24:07;;;;;;;3.40;1.25;;;20.80;53.80;;;;;;5049660;28;20043;-52
2022/10/26 06:26:45;;;;;;;1.80;1.17;;;20.80;53.80;;;;;;5048134;28;20029;-49
2022/10/26 06:29:40;;;;;;;3.92;1.65;;;20.70;53.80;;;;;;5050028;28;20074;-51
2022/10/26 06:32:07;;;;;;;;;;;20.70;53.80;;;;;;5045289;28;20041;-53
2022/10/26 06:34:35;;;;;;;3.60;1.38;;;20.80;53.90;;;;;;5044596;28;19948;-50
2022/10/26 06:37:02;;;;;;;3.33;1.52;;;20.80;53.90;;;;;;5044894;28;20025;-50
2022/10/26 06:39:35;;;;;;;3.70;1.25;;;20.70;53.90;;;;;;5045615;28;20032;-53
2022/10/26 06:42:10;;;;;;;2.90;1.27;;;20.70;53.90;;;;;;5049511;28;20032;-48
2022/10/26 06:44:37;;;;;;;4.93;1.80;;;20.70;54.00;;;;;;5050217;28;20033;-49
2022/10/26 06:47:17;;;;;;;2.53;1.30;;;20.80;54.10;;;;;;5043885;28;20039;-51
2022/10/26 06:50:04;;;;;;;3.05;1.67;;;20.80;54.10;;;;;;5047695;28;20071;-50
2022/10/26 06:52:50;;;;;;;4.18;1.50;;;20.80;54.20;;;;;;5050003;28;20143;-48
2022/10/26 06:55:16;;;;;;;3.55;1.83;;;20.80;54.30;;;;;;5052799;28;20352;-51
2022/10/26 06:57:43;;;;;;;4.68;1.50;;;20.70;54.30;;;;;;5055943;28;20029;-47
2022/10/26 07:00:15;;;;;;;4.07;1.55;;;20.80;54.40;;;;;;5059934;28;20028;-50
2022/10/26 07:02:41;;;;;;;2.78;1.40;;;20.80;54.50;;;;;;5046653;28;20531;-46
2022/10/26 07:05:11;;;;;;;3.65;1.40;;;20.70;54.40;;;;;;5045985;28;20124;-51
2022/10/26 07:07:42;;;;;;;2.35;1.48;;;20.80;54.40;;;;;;5049654;28;20021;-49
2022/10/26 07:10:09;;;;;;;4.07;1.70;;;20.80;54.50;;;;;;5050671;28;20098;-50
2022/10/26 07:12:35;;;;;;;3.78;1.73;;;20.80;54.50;;;;;;5053384;28;20025;-52
2022/10/26 07:15:01;;;;;;;3.88;1.70;;;20.80;54.50;;;;;;5052877;28;20080;-47
2022/10/26 07:17:29;;;;;;;2.85;1.13;;;20.80;54.50;;;;;;5051176;28;20095;-52
2022/10/26 07:19:55;;;;;;;3.20;1.35;;;20.80;54.50;;;;;;5051580;28;20028;-47
2022/10/26 07:22:22;;;;;;;3.20;1.20;;;20.80;54.50;;;;;;5052781;28;20037;-50
2022/10/26 07:24:51;;;;;;;3.88;1.30;;;20.80;54.50;;;;;;5053048;28;20041;-50
2022/10/26 07:27:20;;;;;;;3.85;1.20;;;20.80;54.50;;;;;;5058943;28;20403;-52
2022/10/26 07:29:45;;;;;;;5.35;1.35;;;20.80;54.40;;;;;;5054223;28;20028;-51
2022/10/26 07:32:11;;;;;;;3.83;1.50;;;20.80;54.40;;;;;;5054595;28;20321;-48
2022/10/26 07:34:37;;;;;;;3.55;1.17;;;20.80;54.30;;;;;;5053694;28;20053;-49
2022/10/26 07:37:03;;;;;;;2.85;1.40;;;20.80;54.30;;;;;;5039953;28;20025;-51
2022/10/26 07:39:31;;;;;;;3.03;1.23;;;20.80;54.20;;;;;;5052915;28;20396;-49
2022/10/26 07:41:57;;;;;;;3.10;1.40;;;20.80;54.20;;;;;;5057385;28;20380;-48
2022/10/26 07:44:23;;;;;;;3.35;1.20;;;20.80;54.20;;;;;;5056440;28;20449;-54
2022/10/26 07:46:50;;;;;;;3.38;1.33;;;20.80;54.20;;;;;;5049024;28;20041;-55
2022/10/26 07:49:16;;;;;;;3.05;1.10;;;20.80;54.10;;;;;;5052306;28;20043;-47
2022/10/26 07:51:42;;;;;;;3.50;1.30;;;20.80;54.20;;;;;;5037908;28;20029;-48
2022/10/26 07:54:08;;;;;;;3.42;1.30;;;20.80;54.30;;;;;;5054496;28;20446;-49
2022/10/26 07:56:33;;;;;;;4.43;1.50;;;20.80;54.40;;;;;;5057125;28;20032;-51
2022/10/26 07:58:59;;;;;;;4.88;1.25;;;20.80;54.50;;;;;;5050544;28;20026;-50
2022/10/26 08:01:25;;;;;;;2.92;1.40;;;20.80;54.50;;;;;;5042972;28;20040;-49
2022/10/26 08:03:55;;;;;;;3.28;1.23;;;20.80;54.60;;;;;;5036240;28;20048;-48
2022/10/26 08:06:22;;;;;;;5.22;1.55;;;20.80;54.60;;;;;;5037984;28;20210;-52
2022/10/26 08:08:48;;;;;;;3.33;1.27;;;20.80;54.60;;;;;;5053791;28;20064;-50
2022/10/26 08:11:15;;;;;;;2.20;1.13;;;20.80;54.70;;;;;;5051260;28;20040;-48
2022/10/26 08:13:41;;;;;;;4.40;1.30;;;20.80;54.70;;;;;;5052322;28;20044;-49
2022/10/26 08:16:07;;;;;;;2.95;1.42;;;20.80;54.70;;;;;;5036386;28;20457;-49
2022/10/26 08:18:33;;;;;;;2.28;1.20;;;20.80;54.70;;;;;;5036845;28;20057;-50
2022/10/26 08:21:08;;;;;;;3.60;1.50;;;20.90;54.70;;;;;;5036478;28;20390;-49
2022/10/26 08:23:34;;;;;;;3.72;1.40;;;20.80;54.70;;;;;;5036396;28;20033;-48
2022/10/26 08:26:00;;;;;;;5.30;1.52;;;20.80;54.70;;;;;;5034559;28;20037;-48
2022/10/26 08:28:27;;;;;;;2.10;1.10;;;20.80;54.70;;;;;;5035956;28;20048;-51
2022/10/26 08:30:54;;;;;;;3.83;1.02;;;20.80;54.70;;;;;;5035906;28;20084;-47
2022/10/26 08:33:20;;;;;;;2.83;1.38;;;20.80;54.70;;;;;;5036102;28;20072;-48
2022/10/26 08:35:46;;;;;;;2.30;1.10;;;20.80;54.70;;;;;;5036351;28;20029;-48
2022/10/26 08:38:12;;;;;;;2.92;1.20;;;20.90;54.80;;;;;;5037411;28;20468;-48
2022/10/26 08:40:40;;;;;;;2.80;1.10;;;20.90;54.80;;;;;;5036337;28;20036;-49
2022/10/26 08:43:30;;;;;;;2.75;1.13;;;20.90;54.80;;;;;;5036436;28;20037;-50
2022/10/26 08:46:18;;;;;;;2.05;0.98;;;20.90;54.70;;;;;;5033976;28;20064;-49
2022/10/26 08:48:54;;;;;;;2.50;0.90;;;20.90;54.70;;;;;;5035951;28;20113;-47
2022/10/26 08:51:29;;;;;;;3.88;1.30;;;20.90;54.80;;;;;;5036517;28;20372;-49
2022/10/26 08:54:08;;;;;;;6.05;1.17;;;20.90;54.70;;;;;;5035325;28;20030;-49
2022/10/26 08:56:46;;;;;;;3.33;1.27;;;20.90;54.80;;;;;;5042912;28;20031;-47
2022/10/26 08:59:50;;;;;;;4.57;1.42;;;20.90;54.90;;;;;;5024033;28;20110;-49
2022/10/26 09:02:17;;;;;;;3.03;1.20;;;20.90;54.90;;;;;;5013463;28;20037;-48
2022/10/26 09:04:43;;;;;;;2.83;1.08;;;20.90;55.00;;;;;;5036252;28;20126;-50
2022/10/26 09:07:09;;;;;;;2.58;1.10;;;20.90;55.10;;;;;;5036186;28;20037;-48
2022/10/26 09:10:12;;;;;;;2.50;1.08;;;21.00;55.20;;;;;;5036189;28;20044;-46
2022/10/26 09:12:52;;;;;;;3.15;0.88;;;20.90;55.20;;;;;;4998448;28;20071;-48
2022/10/26 09:15:50;;;;;;;2.47;0.90;;;21.00;55.90;;;;;;5044188;28;20063;-49
2022/10/26 09:18:49;;;;;;;2.45;1.10;;;21.00;55.30;;;;;;5046647;28;20087;-49
2022/10/26 09:21:35;;;;;;;2.72;1.10;;;21.00;55.40;;;;;;5054423;28;20028;-49
2022/10/26 09:24:07;;;;;;;2.85;0.90;;;21.00;55.50;;;;;;5046546;28;20040;-53
2022/10/26 09:26:57;;;;;;;5.40;1.15;;;21.00;55.50;;;;;;5055974;28;20055;-48
2022/10/26 09:29:30;;;;;;;3.60;1.13;;;21.10;55.70;;;;;;5054037;28;20041;-50
2022/10/26 09:31:59;;;;;;;4.20;1.10;;;21.10;55.80;;;;;;5055960;28;20044;-50
2022/10/26 09:34:31;;;;;;;2.72;1.00;;;21.00;55.80;;;;;;5055046;28;20536;-52
2022/10/26 09:36:57;;;;;;;4.03;1.15;;;21.10;56.00;;;;;;5055616;28;20444;-47
2022/10/26 09:39:35;;;;;;;3.50;1.35;;;21.10;56.00;;;;;;5055921;28;20032;-49
2022/10/26 09:42:28;;;;;;;3.45;1.02;;;21.10;56.70;;;;;;5053332;28;20044;-49
2022/10/26 09:45:00;;;;;;;4.75;1.10;;;21.10;56.20;;;;;;5053784;28;20384;-49
2022/10/26 09:47:38;;;;;;;1.90;0.90;;;21.10;56.10;;;;;;5054040;28;20028;-48
2022/10/26 09:50:16;;;;;;;2.25;0.90;;;21.20;56.10;;;;;;5069088;28;20043;-50
2022/10/26 09:52:42;;;;;;;2.22;0.95;;;21.20;56.10;;;;;;5073295;28;20071;-53
2022/10/26 09:55:12;;;;;;;2.55;1.15;;;21.20;56.00;;;;;;5055140;28;20060;-50
2022/10/26 09:57:41;;;;;;;1.98;0.90;;;21.20;55.90;;;;;;5055290;28;20340;-53
2022/10/26 10:00:18;;;;;;;3.47;0.98;;;21.20;55.90;;;;;;5055206;28;20044;-49
2022/10/26 10:02:55;;;;;;;4.95;1.00;;;21.20;55.80;;;;;;5055576;28;20047;-47
2022/10/26 10:05:27;;;;;;;3.60;0.88;;;21.30;55.80;;;;;;5053502;28;20044;-49
2022/10/26 10:08:21;;;;;;;0.93;0.60;;;21.20;55.70;;;;;;5065855;28;20032;-53
2022/10/26 10:10:58;;;;;;;1.83;0.90;;;21.30;55.70;;;;;;5036749;28;20029;-49
2022/10/26 10:13:37;;;;;;;2.85;0.88;;;21.30;55.70;;;;;;5061927;28;20460;-49
2022/10/26 10:16:09;;;;;;;2.92;1.25;;;21.30;55.60;;;;;;5060112;28;20049;-51
2022/10/26 10:18:37;;;;;;;1.58;0.82;;;21.30;55.70;;;;;;5070636;28;20021;-48
2022/10/26 10:21:04;;;;;;;2.50;1.08;;;21.30;55.70;;;;;;5043064;28;20048;-50
2022/10/26 10:23:36;;;;;;;1.60;0.98;;;21.30;56.30;;;;;;5044763;28;20041;-48
2022/10/26 10:26:09;;;;;;;2.10;0.77;;;21.30;55.80;;;;;;5050427;28;20032;-49
2022/10/26 10:28:36;;;;;;;2.78;0.77;;;21.30;56.00;;;;;;5050650;28;20040;-49
2022/10/26 10:31:15;;;;;;;2.90;1.30;;;21.30;56.10;;;;;;5052829;28;20067;-52
2022/10/26 10:33:41;;;;;;;1.60;0.90;;;21.30;56.10;;;;;;5050781;28;20126;-47
2022/10/26 10:36:14;;;;;;;1.98;1.10;;;21.40;56.20;;;;;;5049381;28;20029;-49
2022/10/26 10:38:42;;;;;;;4.28;1.05;;;21.40;56.10;;;;;;5052954;28;20025;-49
2022/10/26 10:41:24;;;;;;;1.20;0.88;;;21.40;56.10;;;;;;5054398;28;20053;-49
2022/10/26 10:44:04;;;;;;;2.13;1.02;;;21.40;56.10;;;;;;5052762;28;20041;-51
2022/10/26 10:46:30;;;;;;;1.85;0.77;;;21.40;56.10;;;;;;5054650;28;20044;-52
2022/10/26 10:49:05;;;;;;;3.45;1.15;;;21.40;56.10;;;;;;5054064;28;20067;-49
2022/10/26 10:51:37;;;;;;;1.42;0.80;;;21.40;56.10;;;;;;5054823;28;20033;-48
2022/10/26 10:54:04;;;;;;;4.57;1.48;;;21.40;56.20;;;;;;5052982;28;20067;-52
2022/10/26 10:56:42;;;;;;;1.35;0.90;;;21.40;56.20;;;;;;5053239;28;20025;-48
2022/10/26 10:59:34;;;;;;;3.28;1.30;;;21.40;56.30;;;;;;5042845;28;20048;-49
2022/10/26 11:02:09;;;;;;;2.08;1.00;;;21.50;56.30;;;;;;5047157;28;20090;-52
2022/10/26 11:04:38;;;;;;;2.42;0.98;;;21.50;56.30;;;;;;5053150;28;20032;-49
2022/10/26 11:07:06;;;;;;;3.42;1.25;;;21.50;56.30;;;;;;5054613;28;20032;-52
2022/10/26 11:09:38;;;;;;;1.83;1.05;;;21.50;56.30;;;;;;5047039;28;20029;-52
2022/10/26 11:12:20;;;;;;;1.77;0.73;;;21.50;56.40;;;;;;5034766;28;20057;-53
2022/10/26 11:14:55;;;;;;;2.55;0.90;;;21.50;56.40;;;;;;5033996;28;20045;-49
2022/10/26 11:17:26;;;;;;;3.70;1.15;;;21.50;56.50;;;;;;5040292;28;20034;-52
2022/10/26 11:20:04;;;;;;;1.42;0.90;;;21.50;56.50;;;;;;5047074;28;20033;-51
2022/10/26 11:22:39;;;;;;;1.52;1.00;;;21.50;56.50;;;;;;5054343;28;20040;-53
2022/10/26 11:25:17;;;;;;;0.73;0.70;;;21.50;56.50;;;;;;5053753;28;20552;-48
2022/10/26 11:27:50;;;;;;;1.95;0.93;;;21.50;56.60;;;;;;5054248;28;20078;-50
2022/10/26 11:30:21;;;;;;;2.60;1.08;;;21.50;57.20;;;;;;5047898;28;20025;-49
2022/10/26 11:33:14;;;;;;;2.10;0.80;;;21.60;56.70;;;;;;5054165;28;20025;-50
2022/10/26 11:35:53;;;;;;;3.25;1.08;;;21.60;56.70;;;;;;5052706;28;20041;-50
2022/10/26 11:38:29;;;;;;;1.92;0.90;;;21.60;56.70;;;;;;5053597;28;20395;-47
2022/10/26 11:41:38;;;;;;;1.85;0.98;;;21.60;56.80;;;;;;5056197;28;20507;-45
2022/10/26 11:44:24;;;;;;;1.80;0.95;;;21.60;56.80;;;;;;5049132;28;20041;-47
2022/10/26 11:47:00;;;;;;;3.08;1.23;;;21.60;56.90;;;;;;5057598;28;20044;-47
2022/10/26 11:49:57;;;;;;;1.38;0.98;;;21.60;57.00;;;;;;5043537;28;20034;-51
2022/10/26 11:52:32;;;;;;;3.80;1.15;;;21.60;57.00;;;;;;5055989;28;20042;-51
2022/10/26 11:55:03;;;;;;;3.38;1.00;;;21.60;57.00;;;;;;5056881;28;20036;-49
2022/10/26 11:57:34;;;;;;;2.53;1.30;;;21.60;57.10;;;;;;5045816;28;20037;-50
2022/10/26 12:00:11;;;;;;;3.70;0.80;;;21.70;57.10;;;;;;5043356;28;20348;-51
2022/10/26 12:02:40;;;;;;;2.47;1.20;;;21.70;57.30;;;;;;5047033;28;20039;-58
2022/10/26 12:05:15;;;;;;;3.05;0.90;;;21.70;57.50;;;;;;5050202;28;20038;-58
2022/10/26 12:07:46;;;;;;;2.53;1.10;;;21.70;57.70;;;;;;5046906;28;20349;-55
2022/10/26 12:10:23;;;;;;;;;;;21.70;57.80;;;;;;5054904;28;20030;-51
2022/10/26 12:13:03;;;;;;;1.80;1.15;;;21.80;57.80;;;;;;5057397;28;19920;-56
2022/10/26 12:15:40;;;;;;;2.97;1.00;;;21.80;57.60;;;;;;5056934;28;20053;-56
2022/10/26 12:18:11;;;;;;;2.58;1.15;;;21.90;57.40;;;;;;5049903;28;20025;-53
2022/10/26 12:21:02;;;;;;;1.92;0.73;;;22.00;57.10;;;;;;5047841;28;20029;-53
2022/10/26 12:23:35;;;;;;;2.58;0.80;;;22.10;56.80;;;;;;5047472;28;20103;-55
2022/10/26 12:26:27;;;;;;;1.90;0.80;;;22.20;56.60;;;;;;5040186;28;20049;-56
2022/10/26 12:29:01;;;;;;;1.92;0.98;;;22.30;56.30;;;;;;5019504;28;20055;-54
2022/10/26 12:31:36;;;;;;;3.30;0.98;;;22.40;56.10;;;;;;5065002;28;20382;-54
2022/10/26 12:34:21;;;;;;;;;;;22.40;55.90;;;;;;5077315;28;20055;-53
2022/10/26 12:36:49;;;;;;;2.20;1.10;;;22.50;55.80;;;;;;5058238;28;19909;-56
2022/10/26 12:39:33;;;;;;;1.10;0.57;;;22.60;55.60;;;;;;5056998;28;20033;-52
2022/10/26 12:42:10;;;;;;;1.10;0.63;;;22.60;55.40;;;;;;5056277;28;20044;-54
2022/10/26 12:44:44;;;;;;;2.60;1.00;;;22.70;55.30;;;;;;5056506;28;20029;-52
2022/10/26 12:47:30;;;;;;;1.70;0.88;;;22.80;55.20;;;;;;5056641;28;20032;-53
2022/10/26 12:50:08;;;;;;;2.35;0.93;;;22.80;55.00;;;;;;5052851;28;20116;-51
2022/10/26 12:52:46;;;;;;;2.45;1.05;;;22.90;54.90;;;;;;5056116;28;20440;-56
2022/10/26 12:55:19;;;;;;;1.92;0.73;;;22.90;54.80;;;;;;5056612;28;20126;-54
2022/10/26 12:57:58;;;;;;;1.63;0.90;;;22.90;54.70;;;;;;5056446;28;20029;-56
2022/10/26 13:00:25;;;;;;;1.88;0.90;;;23.00;54.60;;;;;;5056689;28;20032;-52
2022/10/26 13:03:17;;;;;;;1.63;0.80;;;23.00;54.40;;;;;;5055189;28;20036;-51
2022/10/26 13:06:09;;;;;;;1.83;0.90;;;23.10;54.30;;;;;;5044726;28;20119;-52
2022/10/26 13:08:41;;;;;;;2.13;0.90;;;23.10;54.10;;;;;;5046736;28;20025;-55
2022/10/26 13:11:16;;;;;;;3.88;0.77;;;23.20;54.10;;;;;;5042690;28;20063;-54